Time;durP1;ratioP1;P1;durP2;ratioP2;P2;SDS_P1;SDS_P2;PMS_P1;PMS_P2;Temp;Humidity;BMP_temperature;BMP_pressure;BME280_temperature;BME280_humidity;BME280_pressure;Samples;Min_cycle;Max_cycle;Signal;HPM_P1;HPM_P2
2021/07/13 00:10:47;;;;;;;15.95;9.83;;;;;;;20.44;100.00;100207.16;714564;1202;114600;-84
2021/07/13 00:25:50;;;;;;;11.98;9.60;;;;;;;20.40;100.00;100203.25;714615;1200;114596;-84
2021/07/13 00:40:52;;;;;;;14.73;10.10;;;;;;;20.40;100.00;100212.09;714516;1202;115715;-85
2021/07/13 00:55:56;;;;;;;16.30;10.48;;;;;;;20.28;100.00;100234.98;714596;1200;113834;-84
2021/07/13 01:11:36;;;;;;;14.10;9.25;;;;;;;19.98;100.00;100232.64;714716;1203;115766;-84
2021/07/13 01:27:09;;;;;;;14.15;10.40;;;;;;;20.00;100.00;100240.43;714641;1186;115173;-84
2021/07/13 01:42:12;;;;;;;13.33;10.57;;;;;;;19.98;100.00;100247.78;722941;1177;114616;-85
2021/07/13 01:57:16;;;;;;;17.60;10.93;;;;;;;19.94;100.00;100228.70;728220;1200;115179;-84
2021/07/13 02:12:18;;;;;;;17.80;10.83;;;;;;;19.79;100.00;100224.34;714568;1202;116049;-86
2021/07/13 02:27:22;;;;;;;15.03;9.97;;;;;;;19.71;100.00;100221.83;714654;1202;114909;-85
2021/07/13 02:42:26;;;;;;;14.93;10.17;;;;;;;19.72;100.00;100217.34;714251;1202;115232;-85
2021/07/13 02:57:30;;;;;;;15.05;10.25;;;;;;;19.63;100.00;100227.31;714234;1202;114936;-85
2021/07/13 03:12:34;;;;;;;12.63;9.67;;;;;;;19.53;100.00;100250.78;714373;1200;115571;-84
2021/07/13 03:27:36;;;;;;;13.03;8.48;;;;;;;19.89;100.00;100244.48;714385;1202;116207;-84
2021/07/13 03:42:39;;;;;;;14.85;10.05;;;;;;;20.37;100.00;100251.62;714179;1202;114605;-84
2021/07/13 03:57:42;;;;;;;14.30;10.90;;;;;;;20.71;100.00;100236.56;714286;1200;115803;-86
2021/07/13 04:12:44;;;;;;;13.93;9.83;;;;;;;21.17;100.00;100221.57;714516;1202;114295;-85
2021/07/13 04:27:47;;;;;;;11.65;9.45;;;;;;;21.62;100.00;100264.45;714359;1200;114210;-85
2021/07/13 04:42:49;;;;;;;12.60;9.73;;;;;;;21.68;100.00;100247.58;714388;1200;115266;-86
2021/07/13 04:57:52;;;;;;;14.83;9.53;;;;;;;22.16;100.00;100245.56;713914;1201;114982;-87
2021/07/13 05:12:55;;;;;;;15.85;9.53;;;;;;;22.98;100.00;100245.70;714572;1202;115291;-85
2021/07/13 05:27:57;;;;;;;11.75;9.55;;;;;;;23.67;100.00;100172.59;714290;1205;114495;-85
2021/07/13 05:42:59;;;;;;;10.15;6.60;;;;;;;24.22;100.00;100156.42;714262;1177;114283;-84
2021/07/13 05:58:03;;;;;;;8.68;7.10;;;;;;;25.03;100.00;100155.14;714493;1193;114234;-84
2021/07/13 06:13:05;;;;;;;7.43;5.68;;;;;;;25.54;100.00;100176.94;714218;1200;114457;-79
2021/07/13 06:28:08;;;;;;;11.55;7.10;;;;;;;25.72;100.00;100167.88;714300;1190;114851;-82
2021/07/13 06:43:11;;;;;;;9.03;6.35;;;;;;;26.06;100.00;100166.16;715479;1201;114798;-78
2021/07/13 06:58:13;;;;;;;9.48;7.20;;;;;;;26.34;100.00;100175.24;713581;1202;114757;-78
2021/07/13 07:13:16;;;;;;;12.97;6.90;;;;;;;26.39;100.00;100163.75;714319;1200;114025;-79
2021/07/13 07:28:20;;;;;;;9.08;6.43;;;;;;;26.27;100.00;100150.38;713931;1193;114336;-82
2021/07/13 07:43:22;;;;;;;8.05;5.83;;;;;;;27.50;100.00;100153.27;716426;1202;115125;-77
2021/07/13 07:58:25;;;;;;;5.03;4.45;;;;;;;28.87;96.29;100141.34;714342;1200;113814;-76
2021/07/13 08:13:27;;;;;;;4.70;3.50;;;;;;;29.76;87.39;100145.25;716204;1200;113934;-88
2021/07/13 08:28:30;;;;;;;6.20;3.87;;;;;;;30.44;83.24;100145.08;716518;1205;114361;-86
2021/07/13 08:43:33;;;;;;;7.43;4.13;;;;;;;31.17;78.79;100134.97;716881;1202;113631;-85
2021/07/13 08:58:35;;;;;;;3.70;3.15;;;;;;;31.76;73.07;100133.34;716384;1202;114117;-85
2021/07/13 09:13:40;;;;;;;4.88;3.50;;;;;;;32.40;71.53;100117.17;714678;1205;115094;-76
2021/07/13 09:28:45;;;;;;;3.93;3.35;;;;;;;32.46;69.14;100116.01;714217;1206;114464;-76
2021/07/13 09:44:00;;;;;;;3.55;3.25;;;;;;;32.69;67.18;100111.72;714344;1206;113831;-84
2021/07/13 09:59:02;;;;;;;5.37;3.37;;;;;;;33.23;62.33;100117.08;716593;1203;115091;-84
2021/07/13 10:14:10;;;;;;;4.70;3.25;;;;;;;33.36;61.01;100109.36;716686;1205;114085;-85
2021/07/13 10:29:31;;;;;;;3.70;3.30;;;;;;;34.15;60.71;100108.73;715943;1203;114814;-83
2021/07/13 10:44:44;;;;;;;7.15;5.95;;;;;;;34.81;58.12;100141.34;716589;1202;114986;-83
2021/07/13 10:59:47;;;;;;;3.53;3.00;;;;;;;34.80;56.45;100123.39;716497;1202;115173;-83
2021/07/13 11:14:56;;;;;;;4.17;3.80;;;;;;;34.94;56.46;100109.81;716683;1202;114703;-83
2021/07/13 11:29:58;;;;;;;5.13;3.90;;;;;;;34.54;57.35;100093.94;716699;1202;113336;-85
2021/07/13 11:45:03;;;;;;;5.83;5.00;;;;;;;33.92;59.67;100085.98;716834;1200;114547;-85
2021/07/13 12:00:06;;;;;;;6.43;4.80;;;;;;;34.95;61.51;100051.50;717820;1200;115532;-79
2021/07/13 12:15:09;;;;;;;6.35;5.63;;;;;;;34.78;60.54;100019.40;716648;1202;115346;-76
2021/07/13 12:30:15;;;;;;;6.40;5.53;;;;;;;34.69;59.90;100021.23;714476;1203;114529;-78
2021/07/13 12:45:25;;;;;;;6.60;4.88;;;;;;;34.64;59.31;100017.50;714826;1201;115174;-72
2021/07/13 13:00:28;;;;;;;5.33;4.83;;;;;;;34.93;58.38;100013.63;717062;1200;113983;-79
2021/07/13 13:15:30;;;;;;;5.20;4.70;;;;;;;34.38;55.63;99991.88;719429;1178;113717;-84
2021/07/13 13:30:33;;;;;;;5.55;4.20;;;;;;;34.68;54.69;99998.62;717747;1202;114562;-82
2021/07/13 13:45:35;;;;;;;5.20;3.87;;;;;;;34.96;53.22;99949.56;714600;1200;113822;-83
2021/07/13 14:00:37;;;;;;;5.85;3.63;;;;;;;35.05;52.79;99965.99;717027;1202;113672;-84
2021/07/13 14:15:40;;;;;;;3.88;3.58;;;;;;;35.05;51.05;99960.55;714143;1202;115174;-83
2021/07/13 14:30:42;;;;;;;6.63;3.75;;;;;;;34.05;50.65;99978.31;714150;1203;113742;-83
2021/07/13 14:45:45;;;;;;;5.28;3.80;;;;;;;33.76;51.35;99963.02;714816;1203;115498;-85
2021/07/13 15:00:48;;;;;;;5.60;5.00;;;;;;;33.59;53.16;99969.84;715511;1183;113584;-83
2021/07/13 15:15:51;;;;;;;5.17;4.63;;;;;;;33.55;54.31;99957.95;715023;1189;113715;-84
2021/07/13 15:30:54;;;;;;;8.95;6.30;;;;;;;33.32;54.84;99956.95;716410;1200;114564;-87
2021/07/13 15:45:57;;;;;;;32.18;21.83;;;;;;;33.61;56.35;99937.70;716648;1200;114247;-87
2021/07/13 16:01:02;;;;;;;33.50;30.00;;;;;;;33.50;56.52;99911.82;716325;1202;115494;-88
2021/07/13 16:16:05;;;;;;;8.45;7.58;;;;;;;33.04;57.21;99898.95;717203;1203;113906;-87
2021/07/13 16:31:08;;;;;;;7.67;6.57;;;;;;;33.21;58.62;99901.14;715021;1178;114136;-80
2021/07/13 16:46:10;;;;;;;7.78;5.55;;;;;;;33.06;59.11;99899.45;715495;1200;113769;-83
2021/07/13 17:01:12;;;;;;;6.37;5.33;;;;;;;32.76;60.56;99890.67;715254;1202;115227;-83
2021/07/13 17:16:15;;;;;;;6.63;5.93;;;;;;;32.44;62.12;99894.85;715011;1202;113826;-81
2021/07/13 17:31:18;;;;;;;11.50;7.87;;;;;;;32.28;64.01;99889.64;715923;1203;114296;-81
2021/07/13 17:46:20;;;;;;;8.95;6.70;;;;;;;31.97;66.84;99895.38;715184;1202;113789;-77
2021/07/13 18:01:23;;;;;;;16.15;12.65;;;;;;;31.69;68.72;99891.61;714022;1200;114259;-77
2021/07/13 18:16:29;;;;;;;16.13;12.43;;;;;;;31.02;69.81;99906.43;714019;1177;114891;-73
2021/07/13 18:31:32;;;;;;;10.00;7.78;;;;;;;29.73;71.56;99916.88;714191;1202;115459;-76
2021/07/13 18:46:34;;;;;;;8.78;7.88;;;;;;;28.90;74.63;99932.17;713466;1202;114369;-76
2021/07/13 19:01:37;;;;;;;9.43;8.40;;;;;;;28.37;76.60;99943.84;714297;1178;113790;-79
2021/07/13 19:16:40;;;;;;;13.63;10.13;;;;;;;27.75;78.84;99952.56;714561;1202;114702;-74
2021/07/13 19:31:47;;;;;;;10.57;9.43;;;;;;;27.17;82.08;99966.55;715086;1202;114721;-77
2021/07/13 19:46:50;;;;;;;9.60;8.63;;;;;;;26.80;84.99;99957.26;715592;1203;114650;-77
2021/07/13 20:01:54;;;;;;;11.17;9.17;;;;;;;26.29;87.99;99948.50;714440;1200;113853;-76
2021/07/13 20:16:57;;;;;;;11.97;9.73;;;;;;;25.90;91.16;99962.70;714497;1202;114615;-77
2021/07/13 20:32:01;;;;;;;11.00;9.25;;;;;;;25.68;92.72;99965.30;714089;1203;116211;-77
2021/07/13 20:47:03;;;;;;;11.73;9.73;;;;;;;25.23;95.86;99973.10;714287;1202;115074;-77
2021/07/13 21:02:07;;;;;;;9.63;8.73;;;;;;;24.81;96.85;99956.44;714313;1202;114486;-77
2021/07/13 21:17:09;;;;;;;13.63;9.43;;;;;;;24.50;98.18;99939.70;714168;1190;113688;-81
2021/07/13 21:32:11;;;;;;;9.70;8.53;;;;;;;24.18;98.29;99911.41;713835;1202;114722;-81
2021/07/13 21:47:14;;;;;;;9.50;8.53;;;;;;;23.87;98.77;99925.94;713841;1200;114908;-80
2021/07/13 22:02:21;;;;;;;10.77;8.57;;;;;;;23.59;99.40;99943.48;713834;1177;113619;-81
2021/07/13 22:17:23;;;;;;;12.58;8.75;;;;;;;23.25;100.00;99972.58;713719;1202;114264;-81
2021/07/13 22:32:26;;;;;;;9.07;8.10;;;;;;;23.13;100.00;99985.06;714136;1202;113620;-81
2021/07/13 22:47:28;;;;;;;11.40;8.55;;;;;;;22.80;100.00;100005.80;714220;1202;114304;-81
2021/07/13 23:02:30;;;;;;;10.05;8.58;;;;;;;22.71;100.00;100017.83;714225;1202;115162;-79
2021/07/13 23:17:33;;;;;;;10.13;8.67;;;;;;;22.38;100.00;99995.77;714084;1203;114312;-81
2021/07/13 23:32:37;;;;;;;12.68;9.15;;;;;;;21.96;100.00;99990.14;714184;1192;114630;-81
2021/07/13 23:47:39;;;;;;;9.33;8.37;;;;;;;21.86;100.00;99963.10;713989;1200;114620;-80
